West Springfield, Massachusetts
Current Conditions -  °F | °C
As of 11:53 PM on Friday 28 Nov 2014 (Local Time) from KBAF Reporting Station
Clear Clear  
Wind Chill: 11°   Ceiling: Unl
Heat Index: 18°   Visibility: 9mi
Dew Point: 13°   Wind: 5mph
Humidity: 81%   Direction: 200°SSW
Pressure: 30.24"   Gusts: NA
Location:  42.11°N, 72.62°W
Report Text: KBAF 290453Z AUTO 20004KT 9SM CLR M08/M11 A3024 RMK AO2 SLP248 T10781106 400111083
Loading
Personal Weather Stations






























Interactive Weather Map New forecast layout! Learn more

10-Day Weather Forecast

Advertisements
Track Severe Weather on mobile